sensor_id;sensor_type;location;lat;lon;timestamp;P1;durP1;ratioP1;P2;durP2;ratioP2
30249;SDS011;17064;47.974;13.826;2023-11-21T00:01:45;1.30;;;0.43;;
30249;SDS011;17064;47.974;13.826;2023-11-21T00:06:46;4.15;;;0.80;;
30249;SDS011;17064;47.974;13.826;2023-11-21T00:11:47;2.63;;;0.50;;
30249;SDS011;17064;47.974;13.826;2023-11-21T00:16:47;2.83;;;0.68;;
30249;SDS011;17064;47.974;13.826;2023-11-21T00:21:48;1.23;;;0.40;;
30249;SDS011;17064;47.974;13.826;2023-11-21T00:26:50;5.15;;;0.82;;
30249;SDS011;17064;47.974;13.826;2023-11-21T00:31:51;4.45;;;0.88;;
30249;SDS011;17064;47.974;13.826;2023-11-21T00:36:52;5.40;;;0.70;;
30249;SDS011;17064;47.974;13.826;2023-11-21T00:41:52;2.25;;;0.57;;
30249;SDS011;17064;47.974;13.826;2023-11-21T00:46:54;3.55;;;0.90;;
30249;SDS011;17064;47.974;13.826;2023-11-21T00:51:55;3.05;;;0.60;;
30249;SDS011;17064;47.974;13.826;2023-11-21T00:56:58;5.43;;;0.95;;
30249;SDS011;17064;47.974;13.826;2023-11-21T01:01:58;3.65;;;0.73;;
30249;SDS011;17064;47.974;13.826;2023-11-21T01:07:01;0.97;;;0.40;;
30249;SDS011;17064;47.974;13.826;2023-11-21T01:12:02;3.15;;;1.00;;
30249;SDS011;17064;47.974;13.826;2023-11-21T01:17:02;5.88;;;0.80;;
30249;SDS011;17064;47.974;13.826;2023-11-21T01:22:04;2.85;;;0.68;;
30249;SDS011;17064;47.974;13.826;2023-11-21T01:27:05;3.55;;;0.77;;
30249;SDS011;17064;47.974;13.826;2023-11-21T01:32:07;4.30;;;0.93;;
30249;SDS011;17064;47.974;13.826;2023-11-21T01:37:08;4.05;;;1.00;;
30249;SDS011;17064;47.974;13.826;2023-11-21T01:42:12;7.65;;;1.08;;
30249;SDS011;17064;47.974;13.826;2023-11-21T01:47:13;3.40;;;0.70;;
30249;SDS011;17064;47.974;13.826;2023-11-21T01:52:14;2.28;;;0.65;;
30249;SDS011;17064;47.974;13.826;2023-11-21T01:57:14;5.60;;;0.88;;
30249;SDS011;17064;47.974;13.826;2023-11-21T02:02:16;2.00;;;0.88;;
30249;SDS011;17064;47.974;13.826;2023-11-21T02:07:16;8.15;;;1.52;;
30249;SDS011;17064;47.974;13.826;2023-11-21T02:12:19;3.10;;;0.53;;
30249;SDS011;17064;47.974;13.826;2023-11-21T02:17:20;4.25;;;1.05;;
30249;SDS011;17064;47.974;13.826;2023-11-21T02:22:20;2.90;;;0.82;;
30249;SDS011;17064;47.974;13.826;2023-11-21T02:27:23;2.05;;;0.52;;
30249;SDS011;17064;47.974;13.826;2023-11-21T02:32:24;3.58;;;0.70;;
30249;SDS011;17064;47.974;13.826;2023-11-21T02:37:26;3.78;;;0.80;;
30249;SDS011;17064;47.974;13.826;2023-11-21T02:42:27;3.70;;;0.75;;
30249;SDS011;17064;47.974;13.826;2023-11-21T02:47:27;2.00;;;1.25;;
30249;SDS011;17064;47.974;13.826;2023-11-21T02:52:28;5.13;;;0.82;;
30249;SDS011;17064;47.974;13.826;2023-11-21T02:57:29;2.30;;;0.68;;
30249;SDS011;17064;47.974;13.826;2023-11-21T03:02:30;3.80;;;0.90;;
30249;SDS011;17064;47.974;13.826;2023-11-21T03:07:31;4.20;;;1.13;;
30249;SDS011;17064;47.974;13.826;2023-11-21T03:12:31;4.90;;;1.70;;
30249;SDS011;17064;47.974;13.826;2023-11-21T03:17:32;8.10;;;2.47;;
30249;SDS011;17064;47.974;13.826;2023-11-21T03:27:37;7.47;;;1.10;;
30249;SDS011;17064;47.974;13.826;2023-11-21T03:32:39;1.60;;;0.80;;
30249;SDS011;17064;47.974;13.826;2023-11-21T03:37:39;6.03;;;0.80;;
30249;SDS011;17064;47.974;13.826;2023-11-21T03:42:41;3.67;;;1.00;;
30249;SDS011;17064;47.974;13.826;2023-11-21T03:47:42;2.67;;;0.82;;
30249;SDS011;17064;47.974;13.826;2023-11-21T03:52:43;3.55;;;0.90;;
30249;SDS011;17064;47.974;13.826;2023-11-21T03:57:44;1.65;;;0.60;;
30249;SDS011;17064;47.974;13.826;2023-11-21T04:02:45;2.55;;;1.45;;
30249;SDS011;17064;47.974;13.826;2023-11-21T04:07:46;3.45;;;0.65;;
30249;SDS011;17064;47.974;13.826;2023-11-21T04:12:46;5.10;;;1.17;;
30249;SDS011;17064;47.974;13.826;2023-11-21T04:17:48;3.00;;;0.77;;
30249;SDS011;17064;47.974;13.826;2023-11-21T04:22:49;2.40;;;0.90;;
30249;SDS011;17064;47.974;13.826;2023-11-21T04:27:49;3.47;;;0.98;;
30249;SDS011;17064;47.974;13.826;2023-11-21T04:32:50;3.65;;;0.80;;
30249;SDS011;17064;47.974;13.826;2023-11-21T04:37:51;2.85;;;0.80;;
30249;SDS011;17064;47.974;13.826;2023-11-21T04:42:51;4.28;;;0.90;;
30249;SDS011;17064;47.974;13.826;2023-11-21T04:47:52;1.80;;;0.80;;
30249;SDS011;17064;47.974;13.826;2023-11-21T04:52:52;4.55;;;1.23;;
30249;SDS011;17064;47.974;13.826;2023-11-21T04:57:54;3.28;;;1.35;;
30249;SDS011;17064;47.974;13.826;2023-11-21T05:02:54;0.90;;;0.50;;
30249;SDS011;17064;47.974;13.826;2023-11-21T05:07:55;4.07;;;1.05;;
30249;SDS011;17064;47.974;13.826;2023-11-21T05:12:56;6.80;;;1.17;;
30249;SDS011;17064;47.974;13.826;2023-11-21T05:17:56;3.05;;;0.82;;
30249;SDS011;17064;47.974;13.826;2023-11-21T05:23:00;3.47;;;1.02;;
30249;SDS011;17064;47.974;13.826;2023-11-21T05:28:00;6.13;;;1.35;;
30249;SDS011;17064;47.974;13.826;2023-11-21T05:33:02;1.50;;;0.90;;
30249;SDS011;17064;47.974;13.826;2023-11-21T05:38:03;5.57;;;0.90;;
30249;SDS011;17064;47.974;13.826;2023-11-21T05:43:05;2.78;;;0.70;;
30249;SDS011;17064;47.974;13.826;2023-11-21T05:48:06;2.05;;;0.68;;
30249;SDS011;17064;47.974;13.826;2023-11-21T05:53:07;3.03;;;0.68;;
30249;SDS011;17064;47.974;13.826;2023-11-21T05:58:10;2.92;;;0.98;;
30249;SDS011;17064;47.974;13.826;2023-11-21T06:03:10;4.68;;;0.82;;
30249;SDS011;17064;47.974;13.826;2023-11-21T06:08:12;2.72;;;0.77;;
30249;SDS011;17064;47.974;13.826;2023-11-21T06:13:13;2.80;;;0.82;;
30249;SDS011;17064;47.974;13.826;2023-11-21T06:18:14;3.72;;;0.77;;
30249;SDS011;17064;47.974;13.826;2023-11-21T06:23:14;6.05;;;1.00;;
30249;SDS011;17064;47.974;13.826;2023-11-21T06:28:16;5.60;;;1.67;;
30249;SDS011;17064;47.974;13.826;2023-11-21T06:33:17;4.15;;;1.60;;
30249;SDS011;17064;47.974;13.826;2023-11-21T06:38:18;5.22;;;1.27;;
30249;SDS011;17064;47.974;13.826;2023-11-21T06:43:19;3.38;;;1.17;;
30249;SDS011;17064;47.974;13.826;2023-11-21T06:48:22;3.40;;;1.08;;
30249;SDS011;17064;47.974;13.826;2023-11-21T06:53:23;7.75;;;1.00;;
30249;SDS011;17064;47.974;13.826;2023-11-21T06:58:24;4.38;;;1.60;;
30249;SDS011;17064;47.974;13.826;2023-11-21T07:03:25;3.40;;;0.80;;
30249;SDS011;17064;47.974;13.826;2023-11-21T07:08:26;3.25;;;1.13;;
30249;SDS011;17064;47.974;13.826;2023-11-21T07:13:26;3.63;;;1.02;;
30249;SDS011;17064;47.974;13.826;2023-11-21T07:18:27;3.60;;;1.13;;
30249;SDS011;17064;47.974;13.826;2023-11-21T07:23:28;3.50;;;1.27;;
30249;SDS011;17064;47.974;13.826;2023-11-21T07:28:29;2.72;;;1.08;;
30249;SDS011;17064;47.974;13.826;2023-11-21T07:33:30;3.45;;;1.45;;
30249;SDS011;17064;47.974;13.826;2023-11-21T07:38:31;3.80;;;0.95;;
30249;SDS011;17064;47.974;13.826;2023-11-21T07:43:36;4.75;;;1.40;;
30249;SDS011;17064;47.974;13.826;2023-11-21T07:48:37;3.47;;;0.90;;
30249;SDS011;17064;47.974;13.826;2023-11-21T07:53:39;3.47;;;0.88;;
30249;SDS011;17064;47.974;13.826;2023-11-21T07:58:40;4.13;;;0.88;;
30249;SDS011;17064;47.974;13.826;2023-11-21T08:03:40;7.75;;;0.93;;
30249;SDS011;17064;47.974;13.826;2023-11-21T08:08:41;3.63;;;0.85;;
30249;SDS011;17064;47.974;13.826;2023-11-21T08:13:42;2.20;;;1.10;;
30249;SDS011;17064;47.974;13.826;2023-11-21T08:18:43;2.83;;;0.68;;
30249;SDS011;17064;47.974;13.826;2023-11-21T08:23:44;2.83;;;0.68;;
30249;SDS011;17064;47.974;13.826;2023-11-21T08:28:45;2.78;;;0.70;;
30249;SDS011;17064;47.974;13.826;2023-11-21T08:33:47;2.83;;;0.70;;
30249;SDS011;17064;47.974;13.826;2023-11-21T08:38:48;2.58;;;0.63;;
30249;SDS011;17064;47.974;13.826;2023-11-21T08:43:52;2.80;;;0.73;;
30249;SDS011;17064;47.974;13.826;2023-11-21T08:48:53;2.00;;;0.95;;
30249;SDS011;17064;47.974;13.826;2023-11-21T08:53:54;2.97;;;0.80;;
30249;SDS011;17064;47.974;13.826;2023-11-21T08:58:59;1.58;;;0.70;;
30249;SDS011;17064;47.974;13.826;2023-11-21T09:04:02;2.72;;;0.70;;
30249;SDS011;17064;47.974;13.826;2023-11-21T09:09:03;1.50;;;0.60;;
30249;SDS011;17064;47.974;13.826;2023-11-21T09:14:05;5.80;;;2.63;;
30249;SDS011;17064;47.974;13.826;2023-11-21T09:19:06;4.03;;;0.63;;
30249;SDS011;17064;47.974;13.826;2023-11-21T09:24:07;0.70;;;0.43;;
30249;SDS011;17064;47.974;13.826;2023-11-21T09:29:09;3.63;;;0.60;;
30249;SDS011;17064;47.974;13.826;2023-11-21T09:34:09;1.83;;;0.63;;
30249;SDS011;17064;47.974;13.826;2023-11-21T09:39:11;1.98;;;0.82;;
30249;SDS011;17064;47.974;13.826;2023-11-21T09:44:16;3.42;;;0.90;;
30249;SDS011;17064;47.974;13.826;2023-11-21T09:49:18;2.53;;;0.70;;
30249;SDS011;17064;47.974;13.826;2023-11-21T09:54:25;0.82;;;0.55;;
30249;SDS011;17064;47.974;13.826;2023-11-21T09:59:28;2.92;;;0.50;;
30249;SDS011;17064;47.974;13.826;2023-11-21T10:04:34;1.65;;;0.80;;
30249;SDS011;17064;47.974;13.826;2023-11-21T10:09:36;1.38;;;0.52;;
30249;SDS011;17064;47.974;13.826;2023-11-21T10:14:38;1.00;;;0.60;;
30249;SDS011;17064;47.974;13.826;2023-11-21T10:19:42;5.15;;;0.82;;
30249;SDS011;17064;47.974;13.826;2023-11-21T10:24:43;2.47;;;0.85;;
30249;SDS011;17064;47.974;13.826;2023-11-21T10:29:44;2.50;;;0.75;;
30249;SDS011;17064;47.974;13.826;2023-11-21T10:34:55;3.88;;;0.63;;
30249;SDS011;17064;47.974;13.826;2023-11-21T10:39:59;2.03;;;0.50;;
30249;SDS011;17064;47.974;13.826;2023-11-21T10:44:59;3.60;;;0.90;;
30249;SDS011;17064;47.974;13.826;2023-11-21T10:50:00;1.15;;;0.50;;
30249;SDS011;17064;47.974;13.826;2023-11-21T10:55:02;2.80;;;0.90;;
30249;SDS011;17064;47.974;13.826;2023-11-21T11:00:23;1.08;;;0.50;;
30249;SDS011;17064;47.974;13.826;2023-11-21T11:05:26;0.68;;;0.60;;
30249;SDS011;17064;47.974;13.826;2023-11-21T11:10:28;1.85;;;0.68;;
30249;SDS011;17064;47.974;13.826;2023-11-21T11:15:29;3.15;;;0.75;;
30249;SDS011;17064;47.974;13.826;2023-11-21T11:20:31;1.20;;;0.70;;
30249;SDS011;17064;47.974;13.826;2023-11-21T11:36:05;1.30;;;1.02;;
30249;SDS011;17064;47.974;13.826;2023-11-21T11:41:11;2.20;;;0.98;;
30249;SDS011;17064;47.974;13.826;2023-11-21T11:46:12;2.53;;;1.10;;
30249;SDS011;17064;47.974;13.826;2023-11-21T11:51:13;2.50;;;1.02;;
30249;SDS011;17064;47.974;13.826;2023-11-21T12:01:20;2.22;;;1.30;;
30249;SDS011;17064;47.974;13.826;2023-11-21T12:06:30;1.73;;;1.17;;
30249;SDS011;17064;47.974;13.826;2023-11-21T12:11:34;1.57;;;1.10;;
30249;SDS011;17064;47.974;13.826;2023-11-21T12:16:37;2.20;;;1.07;;
30249;SDS011;17064;47.974;13.826;2023-11-21T12:21:38;3.90;;;1.40;;
30249;SDS011;17064;47.974;13.826;2023-11-21T12:26:41;3.15;;;1.40;;
30249;SDS011;17064;47.974;13.826;2023-11-21T12:31:42;3.95;;;1.65;;
30249;SDS011;17064;47.974;13.826;2023-11-21T12:36:46;4.80;;;1.70;;
30249;SDS011;17064;47.974;13.826;2023-11-21T12:41:46;2.03;;;1.73;;
30249;SDS011;17064;47.974;13.826;2023-11-21T12:46:47;4.88;;;2.22;;
30249;SDS011;17064;47.974;13.826;2023-11-21T12:51:48;2.30;;;2.00;;
30249;SDS011;17064;47.974;13.826;2023-11-21T12:56:49;2.78;;;1.80;;
30249;SDS011;17064;47.974;13.826;2023-11-21T13:01:49;2.28;;;1.73;;
30249;SDS011;17064;47.974;13.826;2023-11-21T13:06:51;8.43;;;3.08;;
30249;SDS011;17064;47.974;13.826;2023-11-21T13:11:59;5.63;;;2.65;;
30249;SDS011;17064;47.974;13.826;2023-11-21T13:17:03;2.70;;;1.85;;
30249;SDS011;17064;47.974;13.826;2023-11-21T13:22:04;14.68;;;5.80;;
30249;SDS011;17064;47.974;13.826;2023-11-21T13:27:04;7.75;;;3.78;;
30249;SDS011;17064;47.974;13.826;2023-11-21T13:32:07;5.57;;;2.20;;
30249;SDS011;17064;47.974;13.826;2023-11-21T13:37:12;8.10;;;2.38;;
30249;SDS011;17064;47.974;13.826;2023-11-21T13:42:12;6.60;;;2.45;;
30249;SDS011;17064;47.974;13.826;2023-11-21T13:47:14;3.70;;;1.88;;
30249;SDS011;17064;47.974;13.826;2023-11-21T13:52:15;2.72;;;1.40;;
30249;SDS011;17064;47.974;13.826;2023-11-21T13:57:17;7.75;;;2.67;;
30249;SDS011;17064;47.974;13.826;2023-11-21T14:02:19;3.67;;;2.00;;
30249;SDS011;17064;47.974;13.826;2023-11-21T14:07:22;2.25;;;1.10;;
30249;SDS011;17064;47.974;13.826;2023-11-21T14:12:34;1.35;;;0.90;;
30249;SDS011;17064;47.974;13.826;2023-11-21T14:17:37;4.68;;;2.63;;
30249;SDS011;17064;47.974;13.826;2023-11-21T14:22:41;3.10;;;2.50;;
30249;SDS011;17064;47.974;13.826;2023-11-21T14:27:42;4.78;;;2.20;;
30249;SDS011;17064;47.974;13.826;2023-11-21T14:32:42;3.22;;;1.80;;
30249;SDS011;17064;47.974;13.826;2023-11-21T14:37:43;3.17;;;1.85;;
30249;SDS011;17064;47.974;13.826;2023-11-21T14:42:44;2.78;;;1.85;;
30249;SDS011;17064;47.974;13.826;2023-11-21T14:47:47;3.78;;;1.30;;
30249;SDS011;17064;47.974;13.826;2023-11-21T14:52:58;1.35;;;1.20;;
30249;SDS011;17064;47.974;13.826;2023-11-21T14:57:59;2.55;;;1.60;;
30249;SDS011;17064;47.974;13.826;2023-11-21T15:03:04;3.80;;;1.70;;
30249;SDS011;17064;47.974;13.826;2023-11-21T15:08:05;4.95;;;1.63;;
30249;SDS011;17064;47.974;13.826;2023-11-21T15:13:20;3.67;;;1.83;;
30249;SDS011;17064;47.974;13.826;2023-11-21T15:18:23;3.00;;;2.30;;
30249;SDS011;17064;47.974;13.826;2023-11-21T15:23:24;15.95;;;5.13;;
30249;SDS011;17064;47.974;13.826;2023-11-21T15:28:25;31.35;;;11.98;;
30249;SDS011;17064;47.974;13.826;2023-11-21T15:33:25;13.60;;;4.80;;
30249;SDS011;17064;47.974;13.826;2023-11-21T15:38:27;8.02;;;3.70;;
30249;SDS011;17064;47.974;13.826;2023-11-21T15:43:28;7.40;;;4.00;;
30249;SDS011;17064;47.974;13.826;2023-11-21T15:48:29;7.28;;;4.05;;
30249;SDS011;17064;47.974;13.826;2023-11-21T15:53:30;6.38;;;4.32;;
30249;SDS011;17064;47.974;13.826;2023-11-21T15:58:32;7.75;;;5.00;;
30249;SDS011;17064;47.974;13.826;2023-11-21T16:03:34;16.52;;;7.85;;
30249;SDS011;17064;47.974;13.826;2023-11-21T16:08:35;17.92;;;8.65;;
30249;SDS011;17064;47.974;13.826;2023-11-21T16:13:36;15.93;;;8.15;;
30249;SDS011;17064;47.974;13.826;2023-11-21T16:18:38;10.73;;;5.47;;
30249;SDS011;17064;47.974;13.826;2023-11-21T16:23:39;15.98;;;6.35;;
30249;SDS011;17064;47.974;13.826;2023-11-21T16:28:39;5.03;;;3.35;;
30249;SDS011;17064;47.974;13.826;2023-11-21T16:33:41;4.47;;;3.00;;
30249;SDS011;17064;47.974;13.826;2023-11-21T16:38:42;9.05;;;4.38;;
30249;SDS011;17064;47.974;13.826;2023-11-21T16:43:43;5.30;;;3.90;;
30249;SDS011;17064;47.974;13.826;2023-11-21T16:48:43;5.40;;;3.50;;
30249;SDS011;17064;47.974;13.826;2023-11-21T16:53:44;5.55;;;3.03;;
30249;SDS011;17064;47.974;13.826;2023-11-21T16:58:45;3.83;;;2.80;;
30249;SDS011;17064;47.974;13.826;2023-11-21T17:03:46;4.63;;;2.72;;
30249;SDS011;17064;47.974;13.826;2023-11-21T17:08:48;4.57;;;3.13;;
30249;SDS011;17064;47.974;13.826;2023-11-21T17:13:49;5.63;;;3.20;;
30249;SDS011;17064;47.974;13.826;2023-11-21T17:18:51;6.70;;;2.97;;
30249;SDS011;17064;47.974;13.826;2023-11-21T17:23:51;2.53;;;2.00;;
30249;SDS011;17064;47.974;13.826;2023-11-21T17:28:52;3.22;;;1.80;;
30249;SDS011;17064;47.974;13.826;2023-11-21T17:33:54;3.92;;;1.70;;
30249;SDS011;17064;47.974;13.826;2023-11-21T17:38:55;2.70;;;1.98;;
30249;SDS011;17064;47.974;13.826;2023-11-21T17:43:57;4.20;;;2.78;;
30249;SDS011;17064;47.974;13.826;2023-11-21T17:48:57;3.25;;;2.20;;
30249;SDS011;17064;47.974;13.826;2023-11-21T17:53:58;4.85;;;2.72;;
30249;SDS011;17064;47.974;13.826;2023-11-21T17:59:01;3.38;;;2.25;;
30249;SDS011;17064;47.974;13.826;2023-11-21T18:04:03;3.13;;;1.85;;
30249;SDS011;17064;47.974;13.826;2023-11-21T18:09:04;4.20;;;1.90;;
30249;SDS011;17064;47.974;13.826;2023-11-21T18:14:08;10.95;;;5.20;;
30249;SDS011;17064;47.974;13.826;2023-11-21T18:19:10;22.08;;;9.15;;
30249;SDS011;17064;47.974;13.826;2023-11-21T18:24:10;11.82;;;5.32;;
30249;SDS011;17064;47.974;13.826;2023-11-21T18:29:11;9.85;;;3.17;;
30249;SDS011;17064;47.974;13.826;2023-11-21T18:34:17;10.00;;;4.72;;
30249;SDS011;17064;47.974;13.826;2023-11-21T18:39:18;5.68;;;3.50;;
30249;SDS011;17064;47.974;13.826;2023-11-21T18:44:19;6.72;;;4.00;;
30249;SDS011;17064;47.974;13.826;2023-11-21T18:49:19;9.32;;;3.67;;
30249;SDS011;17064;47.974;13.826;2023-11-21T18:54:20;7.15;;;3.72;;
30249;SDS011;17064;47.974;13.826;2023-11-21T18:59:21;5.80;;;3.60;;
30249;SDS011;17064;47.974;13.826;2023-11-21T19:04:22;7.78;;;4.30;;
30249;SDS011;17064;47.974;13.826;2023-11-21T19:09:24;8.73;;;4.07;;
30249;SDS011;17064;47.974;13.826;2023-11-21T19:14:25;7.35;;;4.10;;
30249;SDS011;17064;47.974;13.826;2023-11-21T19:19:26;5.70;;;3.70;;
30249;SDS011;17064;47.974;13.826;2023-11-21T19:24:28;6.30;;;3.88;;
30249;SDS011;17064;47.974;13.826;2023-11-21T19:29:28;10.52;;;6.55;;
30249;SDS011;17064;47.974;13.826;2023-11-21T19:34:29;11.00;;;5.57;;
30249;SDS011;17064;47.974;13.826;2023-11-21T19:39:31;10.02;;;5.97;;
30249;SDS011;17064;47.974;13.826;2023-11-21T19:44:32;10.48;;;6.38;;
30249;SDS011;17064;47.974;13.826;2023-11-21T19:49:36;12.88;;;5.93;;
30249;SDS011;17064;47.974;13.826;2023-11-21T19:54:38;9.00;;;4.97;;
30249;SDS011;17064;47.974;13.826;2023-11-21T19:59:38;10.70;;;5.45;;
30249;SDS011;17064;47.974;13.826;2023-11-21T20:04:43;20.67;;;8.13;;
30249;SDS011;17064;47.974;13.826;2023-11-21T20:09:44;21.35;;;9.77;;
30249;SDS011;17064;47.974;13.826;2023-11-21T20:14:45;15.63;;;6.90;;
30249;SDS011;17064;47.974;13.826;2023-11-21T20:24:49;8.00;;;5.18;;
30249;SDS011;17064;47.974;13.826;2023-11-21T20:29:50;8.27;;;4.47;;
30249;SDS011;17064;47.974;13.826;2023-11-21T20:34:51;7.43;;;4.68;;
30249;SDS011;17064;47.974;13.826;2023-11-21T20:39:53;8.65;;;4.95;;
30249;SDS011;17064;47.974;13.826;2023-11-21T20:44:54;7.03;;;4.45;;
30249;SDS011;17064;47.974;13.826;2023-11-21T20:49:55;9.75;;;4.80;;
30249;SDS011;17064;47.974;13.826;2023-11-21T20:54:58;7.15;;;4.32;;
30249;SDS011;17064;47.974;13.826;2023-11-21T20:59:59;10.13;;;4.32;;
30249;SDS011;17064;47.974;13.826;2023-11-21T21:05:00;8.00;;;5.00;;
30249;SDS011;17064;47.974;13.826;2023-11-21T21:10:00;9.13;;;5.22;;
30249;SDS011;17064;47.974;13.826;2023-11-21T21:15:01;11.80;;;6.07;;
30249;SDS011;17064;47.974;13.826;2023-11-21T21:20:03;15.13;;;6.40;;
30249;SDS011;17064;47.974;13.826;2023-11-21T21:25:05;10.75;;;5.95;;
30249;SDS011;17064;47.974;13.826;2023-11-21T21:30:06;8.90;;;5.57;;
30249;SDS011;17064;47.974;13.826;2023-11-21T21:35:09;11.63;;;5.65;;
30249;SDS011;17064;47.974;13.826;2023-11-21T21:40:11;6.90;;;4.47;;
30249;SDS011;17064;47.974;13.826;2023-11-21T21:45:12;7.88;;;4.53;;
30249;SDS011;17064;47.974;13.826;2023-11-21T21:50:13;8.05;;;4.95;;
30249;SDS011;17064;47.974;13.826;2023-11-21T21:55:16;11.02;;;5.30;;
30249;SDS011;17064;47.974;13.826;2023-11-21T22:00:17;8.55;;;5.13;;
30249;SDS011;17064;47.974;13.826;2023-11-21T22:05:18;10.85;;;5.68;;
30249;SDS011;17064;47.974;13.826;2023-11-21T22:10:19;10.13;;;6.32;;
30249;SDS011;17064;47.974;13.826;2023-11-21T22:15:20;9.80;;;5.28;;
30249;SDS011;17064;47.974;13.826;2023-11-21T22:20:21;9.60;;;5.50;;
30249;SDS011;17064;47.974;13.826;2023-11-21T22:25:22;11.10;;;5.88;;
30249;SDS011;17064;47.974;13.826;2023-11-21T22:30:23;12.00;;;6.75;;
30249;SDS011;17064;47.974;13.826;2023-11-21T22:35:27;13.98;;;6.38;;
30249;SDS011;17064;47.974;13.826;2023-11-21T22:40:31;10.82;;;6.15;;
30249;SDS011;17064;47.974;13.826;2023-11-21T22:45:32;9.63;;;5.57;;
30249;SDS011;17064;47.974;13.826;2023-11-21T22:50:33;10.43;;;6.40;;
30249;SDS011;17064;47.974;13.826;2023-11-21T22:55:33;11.55;;;6.28;;
30249;SDS011;17064;47.974;13.826;2023-11-21T23:00:34;10.43;;;5.70;;
30249;SDS011;17064;47.974;13.826;2023-11-21T23:05:36;9.48;;;5.97;;
30249;SDS011;17064;47.974;13.826;2023-11-21T23:10:37;10.57;;;5.43;;
30249;SDS011;17064;47.974;13.826;2023-11-21T23:15:39;10.38;;;5.80;;
30249;SDS011;17064;47.974;13.826;2023-11-21T23:20:42;12.50;;;6.35;;
30249;SDS011;17064;47.974;13.826;2023-11-21T23:25:43;10.50;;;6.05;;
30249;SDS011;17064;47.974;13.826;2023-11-21T23:30:43;8.90;;;5.68;;
30249;SDS011;17064;47.974;13.826;2023-11-21T23:35:44;10.80;;;6.28;;
30249;SDS011;17064;47.974;13.826;2023-11-21T23:40:45;10.45;;;5.85;;
30249;SDS011;17064;47.974;13.826;2023-11-21T23:45:47;10.95;;;5.88;;
30249;SDS011;17064;47.974;13.826;2023-11-21T23:50:47;9.77;;;6.03;;
30249;SDS011;17064;47.974;13.826;2023-11-21T23:55:48;12.13;;;6.65;;
